Time;durP1;ratioP1;P1;durP2;ratioP2;P2;SDS_P1;SDS_P2;PMS_P1;PMS_P2;Temp;Humidity;BMP_temperature;BMP_pressure;BME280_temperature;BME280_humidity;BME280_pressure;Samples;Min_cycle;Max_cycle;Signal;HPM_P1;HPM_P2
2021/01/08 00:00:10;;;;;;;6.00;4.53;;;;;;;-144.99;100.00;52590.78;5076426;28;20659;-75
2021/01/08 00:02:36;;;;;;;6.07;5.10;;;;;;;-144.99;100.00;52550.00;5079755;28;20967;-76
2021/01/08 00:05:04;;;;;;;7.30;4.63;;;;;;;-144.99;100.00;52572.44;5072231;28;20662;-76
2021/01/08 00:07:32;;;;;;;5.27;4.27;;;;;;;-144.99;100.00;52562.25;5073920;28;20657;-76
2021/01/08 00:09:59;;;;;;;5.87;4.60;;;;;;;-144.99;100.00;52550.00;5059871;28;21021;-76
2021/01/08 00:12:25;;;;;;;4.50;4.00;;;;;;;-144.99;100.00;52550.00;5066939;28;20673;-76
2021/01/08 00:14:51;;;;;;;5.60;4.30;;;;;;;-144.99;100.00;52594.84;5074356;28;20750;-77
2021/01/08 00:17:17;;;;;;;5.20;3.53;;;;;;;-144.99;100.00;52554.09;5071792;28;20635;-77
2021/01/08 00:19:43;;;;;;;4.67;3.50;;;;;;;-144.99;100.00;52570.38;5069779;28;21147;-78
2021/01/08 00:22:10;;;;;;;5.13;4.00;;;;;;;-144.99;100.00;52529.63;5080355;28;20715;-77
2021/01/08 00:24:36;;;;;;;5.07;4.23;;;;;;;-144.99;100.00;52570.38;5071406;28;20612;-77
2021/01/08 00:27:03;;;;;;;4.80;3.30;;;;;;;-144.99;100.00;52582.63;5060099;28;20654;-77
2021/01/08 00:29:30;;;;;;;5.30;3.20;;;;;;;-144.99;100.00;52570.38;5070507;28;20686;-77
2021/01/08 00:31:56;;;;;;;4.70;3.90;;;;;;;-144.99;100.00;52558.16;5065323;28;20614;-78
2021/01/08 00:34:22;;;;;;;5.43;4.27;;;;;;;-144.99;100.00;52552.03;5066242;28;20765;-76
2021/01/08 00:36:51;;;;;;;5.80;3.50;;;;;;;-144.99;100.00;52550.00;5070813;28;20741;-77
2021/01/08 00:39:19;;;;;;;4.20;3.37;;;;;;;-144.99;100.00;52558.16;5066604;28;20676;-78
2021/01/08 00:41:47;;;;;;;4.47;3.47;;;;;;;-144.99;100.00;52586.69;5063422;28;20985;-79
2021/01/08 00:44:13;;;;;;;4.87;3.20;;;;;;;-144.99;100.00;52590.78;5074244;28;20691;-77
2021/01/08 00:46:41;;;;;;;4.63;3.57;;;;;;;-144.99;100.00;52586.69;5089278;28;20619;-78
2021/01/08 00:49:08;;;;;;;7.73;3.90;;;;;;;-144.99;100.00;52590.78;5087378;28;20650;-78
2021/01/08 00:51:35;;;;;;;4.87;3.93;;;;;;;-144.99;100.00;52554.09;5086584;28;20618;-79
2021/01/08 00:54:01;;;;;;;4.67;4.17;;;;;;;-144.99;100.00;52550.00;5087400;28;20658;-79
2021/01/08 00:56:28;;;;;;;4.97;3.43;;;;;;;-144.99;100.00;52554.09;5070779;28;20743;-78
2021/01/08 00:58:55;;;;;;;10.13;5.03;;;;;;;-144.99;100.00;52582.63;5068903;28;20665;-77
2021/01/08 01:01:24;;;;;;;6.17;4.30;;;;;;;-144.99;100.00;52598.94;5058696;28;20680;-78
2021/01/08 01:03:51;;;;;;;4.77;3.50;;;;;;;-144.99;100.00;52594.84;5065527;28;20652;-76
2021/01/08 01:06:30;;;;;;;4.30;3.43;;;;;;;-144.99;100.00;52554.09;5066798;28;20642;-77
2021/01/08 01:08:57;;;;;;;7.20;4.93;;;;;;;-144.99;100.00;52586.69;5065965;28;20646;-76
2021/01/08 01:11:24;;;;;;;4.43;3.67;;;;;;;-144.99;100.00;52584.66;5067296;28;20993;-78
2021/01/08 01:13:54;;;;;;;5.87;4.47;;;;;;;-144.99;100.00;52550.00;5068679;28;20754;-77
2021/01/08 01:16:21;;;;;;;7.53;4.23;;;;;;;-144.99;100.00;52582.63;5066834;28;20619;-81
2021/01/08 01:18:48;;;;;;;4.67;3.23;;;;;;;-144.99;100.00;52615.25;5069875;28;20665;-77
2021/01/08 01:21:15;;;;;;;4.97;3.90;;;;;;;-144.99;100.00;52566.31;5070912;28;20688;-79
2021/01/08 01:23:42;;;;;;;4.37;3.47;;;;;;;-144.99;100.00;52566.31;5070978;28;20700;-78
2021/01/08 01:26:08;;;;;;;5.07;3.77;;;;;;;-144.99;100.00;52572.44;5068982;28;20614;-79
2021/01/08 01:28:35;;;;;;;4.53;2.93;;;;;;;-144.99;100.00;52550.00;5072239;28;21600;-77
2021/01/08 01:31:07;;;;;;;5.47;3.50;;;;;;;-144.99;100.00;52568.34;5067959;28;20696;-79
2021/01/08 01:33:34;;;;;;;5.40;3.87;;;;;;;-144.99;100.00;52611.16;5066622;28;20701;-79
2021/01/08 01:36:05;;;;;;;4.57;3.17;;;;;;;-144.99;100.00;52590.78;5077109;28;20654;-79
2021/01/08 01:38:31;;;;;;;4.67;3.43;;;;;;;-144.99;100.00;52558.16;5074171;28;20662;-79
2021/01/08 01:40:57;;;;;;;5.63;4.03;;;;;;;-144.99;100.00;52547.97;5065223;28;20733;-79
2021/01/08 01:43:23;;;;;;;5.77;4.17;;;;;;;-144.99;100.00;52586.69;5067821;28;20745;-81
2021/01/08 01:45:50;;;;;;;4.37;3.27;;;;;;;-144.99;100.00;52574.47;5066189;28;20612;-77
2021/01/08 01:48:17;;;;;;;4.03;3.03;;;;;;;-144.99;100.00;52562.25;5060873;28;20659;-77
2021/01/08 01:50:43;;;;;;;5.63;4.33;;;;;;;-144.99;100.00;52578.53;5065490;28;20619;-77
2021/01/08 01:53:09;;;;;;;6.03;4.53;;;;;;;-144.99;100.00;52586.69;5068923;28;20757;-77
2021/01/08 01:55:37;;;;;;;5.77;3.93;;;;;;;-144.99;100.00;52545.94;5068059;28;21228;-78
2021/01/08 01:58:04;;;;;;;5.30;3.97;;;;;;;-144.99;100.00;52572.44;5071142;28;20654;-77
2021/01/08 02:00:33;;;;;;;5.83;3.90;;;;;;;-144.99;100.00;52541.84;5065328;28;20651;-77
2021/01/08 02:03:07;;;;;;;6.23;3.97;;;;;;;-144.99;100.00;52550.00;5065397;28;20663;-78
2021/01/08 02:05:35;;;;;;;6.00;4.37;;;;;;;-144.99;100.00;52578.53;5071758;28;20722;-77
2021/01/08 02:08:04;;;;;;;6.63;5.43;;;;;;;-144.99;100.00;52574.47;5058056;28;20685;-77
2021/01/08 02:10:37;;;;;;;6.20;4.53;;;;;;;-144.99;100.00;52578.53;5069110;28;20619;-77
2021/01/08 02:13:04;;;;;;;7.20;4.90;;;;;;;-144.99;100.00;52603.00;5057881;28;21004;-76
2021/01/08 02:15:32;;;;;;;5.90;4.40;;;;;;;-144.99;100.00;52552.03;5059286;28;21146;-75
2021/01/08 02:18:00;;;;;;;5.53;3.80;;;;;;;-144.99;100.00;52576.50;5061243;28;20662;-76
2021/01/08 02:20:26;;;;;;;9.73;4.73;;;;;;;-144.99;100.00;52566.31;5068352;28;20719;-75
2021/01/08 02:23:00;;;;;;;4.97;3.97;;;;;;;-144.99;100.00;52570.38;5066313;28;20966;-76
2021/01/08 02:25:30;;;;;;;7.63;5.30;;;;;;;-144.99;100.00;52570.38;5065214;28;20650;-76
2021/01/08 02:28:18;;;;;;;4.63;3.77;;;;;;;-144.99;100.00;52550.00;5059131;28;20619;-76
2021/01/08 02:30:44;;;;;;;6.77;5.07;;;;;;;-144.99;100.00;52574.47;5064491;28;20713;-76
2021/01/08 02:33:12;;;;;;;5.00;3.63;;;;;;;-144.99;100.00;52590.78;5062500;28;21060;-75
2021/01/08 02:35:39;;;;;;;7.40;4.80;;;;;;;-144.99;100.00;52570.38;5067703;28;20651;-76
2021/01/08 02:38:07;;;;;;;7.57;5.30;;;;;;;-144.99;100.00;52594.84;5056368;28;20690;-77
2021/01/08 02:40:35;;;;;;;6.40;5.13;;;;;;;-144.99;100.00;52525.56;5064972;28;21004;-77
2021/01/08 02:43:03;;;;;;;5.77;4.70;;;;;;;-144.99;100.00;52611.16;5065522;28;20633;-76
2021/01/08 02:45:30;;;;;;;6.37;4.47;;;;;;;-144.99;100.00;52562.25;5054501;28;20664;-75
2021/01/08 02:47:57;;;;;;;7.60;6.87;;;;;;;-144.99;100.00;52541.84;5065564;28;20631;-78
2021/01/08 02:50:23;;;;;;;6.60;4.70;;;;;;;-144.99;100.00;52541.84;5063282;28;20647;-78
2021/01/08 02:52:54;;;;;;;5.67;4.57;;;;;;;-144.99;100.00;52586.69;5059839;28;20666;-79
2021/01/08 02:55:23;;;;;;;7.63;4.90;;;;;;;-144.99;100.00;52578.53;5061138;28;20624;-76
2021/01/08 02:57:51;;;;;;;7.07;5.10;;;;;;;-144.99;100.00;52586.69;5062497;28;20650;-79
2021/01/08 03:00:18;;;;;;;7.50;5.07;;;;;;;-144.99;100.00;52566.31;5056247;28;20655;-77
2021/01/08 03:02:45;;;;;;;7.30;5.90;;;;;;;-144.99;100.00;52525.56;5064789;28;21000;-77
2021/01/08 03:05:12;;;;;;;7.10;5.97;;;;;;;-144.99;100.00;52586.69;5064900;28;20634;-77
2021/01/08 03:07:38;;;;;;;9.80;5.87;;;;;;;-144.99;100.00;52582.63;5064875;28;20932;-80
2021/01/08 03:10:06;;;;;;;9.37;5.90;;;;;;;-144.99;100.00;52558.16;5064753;28;20647;-80
2021/01/08 03:12:32;;;;;;;8.30;5.20;;;;;;;-144.99;100.00;52552.03;5066387;28;20700;-80
2021/01/08 03:15:03;;;;;;;8.70;5.47;;;;;;;-144.99;100.00;52594.84;5074784;28;20734;-80
2021/01/08 03:17:29;;;;;;;9.43;5.87;;;;;;;-144.99;100.00;52562.25;5066994;28;20631;-78
2021/01/08 03:19:55;;;;;;;8.07;6.07;;;;;;;-144.99;100.00;52554.09;5062141;28;20651;-81
2021/01/08 03:22:21;;;;;;;7.63;5.80;;;;;;;-144.99;100.00;52582.63;5055823;28;20623;-78
2021/01/08 03:24:48;;;;;;;7.43;5.20;;;;;;;-144.99;100.00;52533.69;5062057;28;21268;-80
2021/01/08 03:27:14;;;;;;;7.20;5.20;;;;;;;-144.99;100.00;52584.66;5065955;28;20658;-77
2021/01/08 03:29:40;;;;;;;9.77;7.13;;;;;;;-144.99;100.00;52554.09;5070499;28;20674;-78
2021/01/08 03:32:07;;;;;;;7.83;6.30;;;;;;;-144.99;100.00;52576.50;5062142;28;20650;-77
2021/01/08 03:34:33;;;;;;;8.80;6.57;;;;;;;-144.99;100.00;52541.84;5065239;28;20746;-78
2021/01/08 03:36:59;;;;;;;6.80;5.37;;;;;;;-144.99;100.00;52586.69;5080914;28;20611;-77
2021/01/08 03:39:25;;;;;;;9.90;7.10;;;;;;;-144.99;100.00;52574.47;5081839;28;20657;-77
2021/01/08 03:41:51;;;;;;;8.00;5.53;;;;;;;-144.99;100.00;52537.78;5079367;28;20679;-77
2021/01/08 03:44:17;;;;;;;8.47;7.03;;;;;;;-144.99;100.00;52564.28;5063981;28;20730;-77
2021/01/08 03:46:44;;;;;;;8.00;5.70;;;;;;;-144.99;100.00;52584.66;5068918;28;20680;-79
2021/01/08 03:49:11;;;;;;;8.47;6.90;;;;;;;-144.99;100.00;52570.38;5062050;28;20685;-78
2021/01/08 03:51:37;;;;;;;7.97;5.97;;;;;;;-144.99;100.00;52570.38;5068047;28;20615;-79
2021/01/08 03:54:03;;;;;;;7.50;5.90;;;;;;;-144.99;100.00;52578.53;5066146;28;21223;-78
2021/01/08 03:56:29;;;;;;;10.33;7.37;;;;;;;-144.99;100.00;52572.44;5066680;28;20717;-79
2021/01/08 03:58:55;;;;;;;6.97;5.73;;;;;;;-144.99;100.00;52554.09;5069412;28;20673;-76
2021/01/08 04:01:22;;;;;;;7.83;6.03;;;;;;;-144.99;100.00;52558.16;5064913;28;20647;-76
2021/01/08 04:03:48;;;;;;;8.40;5.83;;;;;;;-144.99;100.00;52588.75;5056022;28;21237;-76
2021/01/08 04:06:15;;;;;;;8.30;6.10;;;;;;;-144.99;100.00;52570.38;5070956;28;20674;-76
2021/01/08 04:08:44;;;;;;;7.90;5.23;;;;;;;-144.99;100.00;52568.34;5070500;28;20682;-78
2021/01/08 04:11:10;;;;;;;10.13;7.00;;;;;;;-144.99;100.00;52550.00;5071179;28;21011;-77
2021/01/08 04:13:36;;;;;;;8.80;5.70;;;;;;;-144.99;100.00;52574.47;5070252;28;20677;-79
2021/01/08 04:16:03;;;;;;;8.70;6.33;;;;;;;-144.99;100.00;52547.97;5065509;28;20659;-77
2021/01/08 04:18:29;;;;;;;8.13;6.07;;;;;;;-144.99;100.00;52570.38;5062081;28;20652;-76
2021/01/08 04:20:55;;;;;;;8.47;6.70;;;;;;;-144.99;100.00;52582.63;5051816;28;20624;-77
2021/01/08 04:23:22;;;;;;;10.63;7.83;;;;;;;-144.99;100.00;52566.31;5056023;28;20751;-78
2021/01/08 04:25:48;;;;;;;9.23;6.67;;;;;;;-144.99;100.00;52562.25;5063339;28;20645;-78
2021/01/08 04:28:14;;;;;;;10.17;7.03;;;;;;;-144.99;100.00;52619.31;5082486;28;20667;-80
2021/01/08 04:30:41;;;;;;;9.87;6.10;;;;;;;-144.99;100.00;52582.63;5089275;28;20615;-80
2021/01/08 04:33:07;;;;;;;8.90;7.53;;;;;;;-144.99;100.00;52586.69;5087315;28;20649;-79
2021/01/08 04:35:33;;;;;;;9.43;7.60;;;;;;;-144.99;100.00;52562.25;5087681;28;20633;-79
2021/01/08 04:37:59;;;;;;;11.03;7.63;;;;;;;-144.99;100.00;52584.66;5064330;28;20688;-79
2021/01/08 04:40:26;;;;;;;10.53;6.93;;;;;;;-144.99;100.00;52554.09;5061253;28;20638;-78
2021/01/08 04:42:52;;;;;;;10.33;7.50;;;;;;;-144.99;100.00;52545.94;5056517;28;20648;-78
2021/01/08 04:45:19;;;;;;;9.30;6.97;;;;;;;-144.99;100.00;52609.13;5060487;28;20632;-78
2021/01/08 04:47:47;;;;;;;9.17;6.40;;;;;;;-144.99;100.00;52550.00;5062852;28;20682;-78
2021/01/08 04:50:14;;;;;;;9.50;7.13;;;;;;;-144.99;100.00;52582.63;5057851;28;20620;-79
2021/01/08 04:52:41;;;;;;;12.40;7.23;;;;;;;-144.99;100.00;52609.13;5070263;28;20638;-79
2021/01/08 04:55:09;;;;;;;11.40;6.53;;;;;;;-144.99;100.00;52578.53;5092670;28;20704;-79
2021/01/08 04:57:39;;;;;;;10.17;7.20;;;;;;;-144.99;100.00;52576.50;5088851;28;20626;-78
2021/01/08 05:00:07;;;;;;;9.47;6.10;;;;;;;-144.99;100.00;52582.63;5075495;28;20989;-78
2021/01/08 05:02:34;;;;;;;9.27;6.93;;;;;;;-144.99;100.00;52550.00;5073601;28;20627;-78
2021/01/08 05:05:01;;;;;;;15.63;7.53;;;;;;;-144.99;100.00;52552.03;5067715;28;20631;-80
2021/01/08 05:07:27;;;;;;;10.97;8.03;;;;;;;-144.99;100.00;52619.31;5062505;28;20636;-76
2021/01/08 05:09:53;;;;;;;11.00;7.97;;;;;;;-144.99;100.00;52594.84;5064925;28;20685;-77
2021/01/08 05:12:19;;;;;;;11.97;7.30;;;;;;;-144.99;100.00;52562.25;5067846;28;20638;-79
2021/01/08 05:14:46;;;;;;;8.63;7.17;;;;;;;-144.99;100.00;52562.25;5069594;28;20658;-78
2021/01/08 05:17:13;;;;;;;10.70;8.00;;;;;;;-144.99;100.00;52582.63;5067817;28;20619;-78
2021/01/08 05:19:39;;;;;;;12.23;8.83;;;;;;;-144.99;100.00;52545.94;5068022;28;21270;-78
2021/01/08 05:22:06;;;;;;;10.67;8.33;;;;;;;-144.99;100.00;52556.13;5065873;28;20757;-77
2021/01/08 05:24:33;;;;;;;12.23;8.63;;;;;;;-144.99;100.00;52607.09;5068647;28;20631;-79
2021/01/08 05:27:05;;;;;;;11.97;7.67;;;;;;;-144.99;100.00;52603.00;5063622;28;20677;-75
2021/01/08 05:29:31;;;;;;;11.97;7.80;;;;;;;-144.99;100.00;52611.16;5070394;28;20765;-79
2021/01/08 05:31:58;;;;;;;9.77;7.07;;;;;;;-144.99;100.00;52564.28;5066213;28;20630;-77
2021/01/08 05:34:26;;;;;;;11.60;8.60;;;;;;;-144.99;100.00;52564.28;5069140;28;20654;-77
2021/01/08 05:36:53;;;;;;;12.60;8.60;;;;;;;-144.99;100.00;52584.66;5072718;28;20714;-76
2021/01/08 05:39:22;;;;;;;10.17;7.97;;;;;;;-144.99;100.00;52545.94;5061876;28;21225;-79
2021/01/08 05:41:52;;;;;;;12.17;9.10;;;;;;;-144.99;100.00;52586.69;5071548;28;20695;-78
2021/01/08 05:44:18;;;;;;;11.73;8.83;;;;;;;-144.99;100.00;52558.16;5069448;28;21009;-79
2021/01/08 05:46:47;;;;;;;12.03;9.27;;;;;;;-144.99;100.00;52570.38;5069177;28;20626;-79
2021/01/08 05:49:16;;;;;;;12.17;9.00;;;;;;;-144.99;100.00;52623.38;5067691;28;20716;-79
2021/01/08 05:51:44;;;;;;;10.73;8.00;;;;;;;-144.99;100.00;52611.16;5071592;28;20630;-78
2021/01/08 05:54:11;;;;;;;14.37;9.73;;;;;;;-144.99;100.00;52552.03;5068716;28;20706;-79
2021/01/08 05:56:38;;;;;;;11.30;7.90;;;;;;;-144.99;100.00;52547.97;5063201;28;21181;-77
2021/01/08 05:59:05;;;;;;;16.37;8.87;;;;;;;-144.99;100.00;52588.75;5067549;22;20871;-75
2021/01/08 06:01:35;;;;;;;15.00;10.50;;;;;;;-144.99;100.00;52560.19;5070796;28;20635;-81
2021/01/08 06:04:01;;;;;;;12.10;9.30;;;;;;;-144.99;100.00;52586.69;5082806;28;20679;-76
2021/01/08 06:06:38;;;;;;;12.63;9.43;;;;;;;-144.99;100.00;52566.31;5077655;28;20996;-77
2021/01/08 06:09:05;;;;;;;15.93;11.20;;;;;;;-144.99;100.00;52578.53;5077650;28;20650;-77
2021/01/08 06:11:35;;;;;;;15.47;10.67;;;;;;;-144.99;100.00;52576.50;5070300;28;20631;-75
2021/01/08 06:14:02;;;;;;;15.40;11.33;;;;;;;-144.99;100.00;52558.16;5064725;28;20669;-76
2021/01/08 06:16:36;;;;;;;13.90;9.73;;;;;;;-144.99;100.00;52570.38;5068758;28;21196;-74
2021/01/08 06:19:03;;;;;;;15.23;10.80;;;;;;;-144.99;100.00;52554.09;5062931;28;20674;-77
2021/01/08 06:21:37;;;;;;;15.47;9.70;;;;;;;-144.99;100.00;52543.91;5062759;28;20622;-77
2021/01/08 06:24:05;;;;;;;12.50;11.20;;;;;;;-144.99;100.00;52574.47;5064376;28;20721;-75
2021/01/08 06:26:33;;;;;;;12.70;9.37;;;;;;;-144.99;100.00;52584.66;5070234;28;20642;-75
2021/01/08 06:29:02;;;;;;;11.17;8.47;;;;;;;-144.99;100.00;52590.78;5067921;28;20694;-75
2021/01/08 06:31:36;;;;;;;13.20;8.57;;;;;;;-144.99;100.00;52562.25;5060728;28;20723;-79
2021/01/08 06:34:03;;;;;;;12.90;8.63;;;;;;;-144.99;100.00;52562.25;5065171;28;21211;-80
2021/01/08 06:36:30;;;;;;;14.43;10.33;;;;;;;-144.99;100.00;52554.09;5070091;28;21251;-77
2021/01/08 06:38:59;;;;;;;16.43;10.77;;;;;;;-144.99;100.00;52554.09;5069146;28;20749;-76
2021/01/08 06:41:26;;;;;;;15.73;9.87;;;;;;;-144.99;100.00;52578.53;5068548;28;20639;-77
2021/01/08 06:43:56;;;;;;;12.57;9.30;;;;;;;-144.99;100.00;52578.53;5068964;28;20637;-77
2021/01/08 06:46:28;;;;;;;18.43;11.83;;;;;;;-144.99;100.00;52586.69;5069430;28;21163;-77
2021/01/08 06:48:55;;;;;;;16.30;11.47;;;;;;;-144.99;100.00;52550.00;5058132;28;20769;-75
2021/01/08 06:51:26;;;;;;;13.63;10.40;;;;;;;-144.99;100.00;52533.69;5065438;28;20624;-78
2021/01/08 06:53:55;;;;;;;19.43;11.83;;;;;;;-144.99;100.00;52554.09;5062239;28;21243;-78
2021/01/08 06:56:28;;;;;;;15.53;13.90;;;;;;;-144.99;100.00;52545.94;5069511;28;20704;-80
2021/01/08 06:58:55;;;;;;;17.13;10.53;;;;;;;-144.99;100.00;52545.94;5065669;28;20742;-78
2021/01/08 07:01:28;;;;;;;17.50;11.20;;;;;;;-144.99;100.00;52578.53;5067999;28;21242;-78
2021/01/08 07:03:54;;;;;;;20.27;11.77;;;;;;;-144.99;100.00;52584.66;5063372;28;20650;-76
2021/01/08 07:06:21;;;;;;;14.00;10.77;;;;;;;-144.99;100.00;52550.00;5069465;28;20725;-77
2021/01/08 07:08:48;;;;;;;14.47;10.13;;;;;;;-144.99;100.00;52582.63;5062728;28;20725;-77
2021/01/08 07:11:25;;;;;;;14.33;10.50;;;;;;;-144.99;100.00;52586.69;5068577;28;20615;-77
2021/01/08 07:14:03;;;;;;;15.53;11.53;;;;;;;-144.99;100.00;52574.47;5065068;28;20753;-78
2021/01/08 07:16:30;;;;;;;16.00;10.67;;;;;;;-144.99;100.00;52550.00;5066110;28;20718;-78
2021/01/08 07:19:04;;;;;;;18.87;12.97;;;;;;;-144.99;100.00;52570.38;5057151;28;20762;-75
2021/01/08 07:21:31;;;;;;;17.53;11.13;;;;;;;-144.99;100.00;52578.53;5069078;28;20622;-75
2021/01/08 07:23:58;;;;;;;18.13;12.37;;;;;;;-144.99;100.00;52574.47;5060465;28;20726;-73
2021/01/08 07:26:28;;;;;;;16.60;12.90;;;;;;;-144.99;100.00;52554.09;5068691;28;20977;-74
2021/01/08 07:28:55;;;;;;;15.27;11.67;;;;;;;-144.99;100.00;52547.97;5066756;28;20757;-76
2021/01/08 07:31:31;;;;;;;18.67;13.30;;;;;;;-144.99;100.00;52574.47;5063937;28;20674;-78
2021/01/08 07:33:58;;;;;;;19.00;14.20;;;;;;;-144.99;100.00;52537.78;5065532;28;20666;-75
2021/01/08 07:36:25;;;;;;;12.83;11.13;;;;;;;-144.99;100.00;52594.84;5067308;28;21176;-78
2021/01/08 07:38:52;;;;;;;23.67;13.67;;;;;;;-144.99;100.00;52574.47;5068864;28;20658;-75
2021/01/08 07:41:46;;;;;;;17.13;11.83;;;;;;;-144.99;100.00;52570.38;5070015;28;21235;-78
2021/01/08 07:44:32;;;;;;;18.37;12.93;;;;;;;-144.99;100.00;52576.50;5018128;28;20961;-77
2021/01/08 07:46:58;;;;;;;16.47;11.07;;;;;;;-144.99;100.00;52558.16;5067328;28;20622;-77
2021/01/08 07:49:28;;;;;;;16.77;11.30;;;;;;;-144.99;100.00;52574.47;5060422;28;21273;-77
2021/01/08 07:51:54;;;;;;;19.17;12.70;;;;;;;-144.99;100.00;52590.78;5063586;28;20623;-74
2021/01/08 07:54:53;;;;;;;21.50;13.20;;;;;;;-144.99;100.00;52554.09;5072011;28;20780;-74
2021/01/08 07:57:20;;;;;;;16.00;11.13;;;;;;;-144.99;100.00;52554.09;5065752;28;20673;-74
2021/01/08 07:59:46;;;;;;;16.47;10.33;;;;;;;-144.99;100.00;52570.38;5064847;28;20666;-75
2021/01/08 08:02:12;;;;;;;16.13;11.63;;;;;;;-144.99;100.00;52550.00;5060711;28;20631;-74
2021/01/08 08:04:38;;;;;;;16.63;11.30;;;;;;;-144.99;100.00;52566.31;5062822;28;20718;-75
2021/01/08 08:07:04;;;;;;;20.87;13.30;;;;;;;-144.99;100.00;52562.25;5063068;28;20619;-73
2021/01/08 08:09:31;;;;;;;15.63;11.27;;;;;;;-144.99;100.00;52598.94;5063029;28;21003;-75
2021/01/08 08:11:57;;;;;;;17.60;12.23;;;;;;;-144.99;100.00;52582.63;5069176;28;21016;-75
2021/01/08 08:14:24;;;;;;;16.30;12.13;;;;;;;-144.99;100.00;52594.84;5065844;28;20715;-74
2021/01/08 08:16:50;;;;;;;18.90;12.43;;;;;;;-144.99;100.00;52594.84;5067966;28;20722;-72
2021/01/08 08:19:18;;;;;;;17.23;12.77;;;;;;;-144.99;100.00;52611.16;5056050;28;20658;-75
2021/01/08 08:21:48;;;;;;;14.67;11.00;;;;;;;-144.99;100.00;52531.66;5061122;28;20623;-75
2021/01/08 08:24:16;;;;;;;14.73;11.67;;;;;;;-144.99;100.00;52572.44;5070686;28;20990;-75
2021/01/08 08:26:45;;;;;;;14.57;12.23;;;;;;;-144.99;100.00;52574.47;5070488;28;21193;-74
2021/01/08 08:29:13;;;;;;;17.17;10.87;;;;;;;-144.99;100.00;52574.47;5068171;28;20662;-74
2021/01/08 08:31:41;;;;;;;14.23;10.70;;;;;;;-144.99;100.00;52594.84;5071517;28;20729;-75
2021/01/08 08:34:08;;;;;;;16.63;11.13;;;;;;;-144.99;100.00;52545.94;5057141;28;20781;-75
2021/01/08 08:36:35;;;;;;;15.27;11.93;;;;;;;-144.99;100.00;52578.53;5064527;28;20952;-75
2021/01/08 08:39:07;;;;;;;16.77;11.27;;;;;;;-144.99;100.00;52537.78;5068675;28;20686;-73
2021/01/08 08:41:35;;;;;;;16.00;12.57;;;;;;;-144.99;100.00;52590.78;5072570;28;20719;-73
2021/01/08 08:44:06;;;;;;;18.83;12.40;;;;;;;-144.99;100.00;52586.69;5070730;28;20634;-73
2021/01/08 08:46:43;;;;;;;18.30;12.70;;;;;;;-144.99;100.00;52570.38;5071603;28;20625;-75
2021/01/08 08:49:11;;;;;;;14.87;11.93;;;;;;;-144.99;100.00;52562.25;5062930;28;20701;-73
2021/01/08 08:51:40;;;;;;;19.90;12.03;;;;;;;-144.99;100.00;52578.53;5069418;28;20996;-76
2021/01/08 08:54:06;;;;;;;16.30;11.67;;;;;;;-144.99;100.00;52562.25;5071949;28;21013;-74
2021/01/08 08:56:35;;;;;;;17.17;12.27;;;;;;;-144.99;100.00;52582.63;5072666;28;20639;-74
2021/01/08 08:59:01;;;;;;;16.77;11.17;;;;;;;-144.99;100.00;52570.38;5071411;28;21323;-73
2021/01/08 09:01:42;;;;;;;17.87;14.43;;;;;;;-144.99;100.00;52590.78;5072563;28;20622;-73
2021/01/08 09:04:10;;;;;;;17.10;12.57;;;;;;;-144.99;100.00;52582.63;5069769;28;20728;-75
2021/01/08 09:06:39;;;;;;;17.00;13.70;;;;;;;-144.99;100.00;52541.84;5072119;28;20721;-75
2021/01/08 09:09:17;;;;;;;16.90;11.30;;;;;;;-144.99;100.00;52558.16;5068363;28;20661;-74
2021/01/08 09:12:14;;;;;;;16.83;13.03;;;;;;;-144.99;100.00;52554.09;5071675;28;20633;-73
2021/01/08 09:14:43;;;;;;;17.47;13.97;;;;;;;-144.99;100.00;52541.84;5071798;28;20709;-74
2021/01/08 09:17:18;;;;;;;18.27;12.90;;;;;;;-144.99;100.00;52574.47;5072172;28;21152;-75
2021/01/08 09:19:51;;;;;;;16.03;11.63;;;;;;;-144.99;100.00;52554.09;5068639;28;20707;-73
2021/01/08 09:22:18;;;;;;;22.17;12.93;;;;;;;-144.99;100.00;52578.53;5071978;28;20658;-73
2021/01/08 09:24:47;;;;;;;15.67;12.27;;;;;;;-144.99;100.00;52545.94;5071655;28;20611;-74
2021/01/08 09:27:14;;;;;;;18.13;13.07;;;;;;;-144.99;100.00;52558.16;5071416;28;20939;-73
2021/01/08 09:29:41;;;;;;;24.67;15.60;;;;;;;-144.99;100.00;52554.09;5069796;28;20753;-73
2021/01/08 09:32:08;;;;;;;16.03;12.30;;;;;;;-144.99;100.00;52586.69;5071641;28;20619;-73
2021/01/08 09:34:37;;;;;;;21.80;13.20;;;;;;;-144.99;100.00;52586.69;5060401;28;20655;-74
2021/01/08 09:37:13;;;;;;;17.87;11.27;;;;;;;-144.99;100.00;52550.00;5070060;28;20626;-72
2021/01/08 09:39:41;;;;;;;18.83;15.03;;;;;;;-144.99;100.00;52541.84;5070675;28;20686;-74
2021/01/08 09:42:09;;;;;;;19.50;13.90;;;;;;;-144.99;100.00;52570.38;5071868;28;20627;-72
2021/01/08 09:44:36;;;;;;;16.40;12.87;;;;;;;-144.99;100.00;52590.78;5071199;28;20638;-72
2021/01/08 09:47:05;;;;;;;15.30;10.60;;;;;;;-144.99;100.00;52558.16;5071200;28;20658;-74
2021/01/08 09:49:40;;;;;;;18.37;12.30;;;;;;;-144.99;100.00;52525.56;5068569;28;21089;-72
2021/01/08 09:52:08;;;;;;;19.57;12.47;;;;;;;-144.99;100.00;52507.19;5072280;28;20675;-72
2021/01/08 09:54:50;;;;;;;17.80;13.10;;;;;;;-144.99;100.00;52554.09;5071084;28;20697;-73
2021/01/08 09:57:35;;;;;;;18.03;12.50;;;;;;;-144.99;100.00;52570.38;5070124;28;20721;-72
2021/01/08 10:00:05;;;;;;;15.83;11.87;;;;;;;-144.99;100.00;52586.69;5070004;28;21235;-73
2021/01/08 10:02:38;;;;;;;19.93;11.23;;;;;;;-144.99;100.00;52582.63;5071031;28;20627;-73
2021/01/08 10:05:07;;;;;;;19.37;12.63;;;;;;;-144.99;100.00;52570.38;5069247;28;20626;-73
2021/01/08 10:07:41;;;;;;;15.00;10.67;;;;;;;-144.99;100.00;52566.31;5069901;28;20734;-74
2021/01/08 10:10:10;;;;;;;20.30;12.33;;;;;;;-144.99;100.00;52574.47;5070491;28;21126;-74
2021/01/08 10:12:46;;;;;;;16.40;12.10;;;;;;;-144.99;100.00;52550.00;5070756;28;20634;-74
2021/01/08 10:15:13;;;;;;;18.77;13.97;;;;;;;-144.99;100.00;52550.00;5070249;28;20662;-72
2021/01/08 10:17:47;;;;;;;24.83;12.50;;;;;;;-144.99;100.00;52578.53;5070145;28;20646;-74
2021/01/08 10:20:19;;;;;;;13.43;10.50;;;;;;;-144.99;100.00;52570.38;5068780;28;20678;-73
2021/01/08 10:22:46;;;;;;;14.20;10.30;;;;;;;-144.99;100.00;52574.47;5070875;28;20615;-72
2021/01/08 10:25:24;;;;;;;16.97;12.60;;;;;;;-144.99;100.00;52558.16;5071157;28;20665;-73
2021/01/08 10:27:50;;;;;;;18.07;11.67;;;;;;;-144.99;100.00;52562.25;5069972;28;21164;-74
2021/01/08 10:30:17;;;;;;;15.80;11.50;;;;;;;-144.99;100.00;52586.69;5063233;28;20758;-73
2021/01/08 10:32:45;;;;;;;13.10;9.73;;;;;;;-144.99;100.00;52515.34;5069305;28;20635;-74
2021/01/08 10:35:12;;;;;;;17.30;10.30;;;;;;;-144.99;100.00;52539.81;5055948;28;20663;-73
2021/01/08 10:37:39;;;;;;;17.27;12.90;;;;;;;-144.99;100.00;52558.16;5070719;28;20658;-74
2021/01/08 10:40:07;;;;;;;16.57;9.37;;;;;;;-144.99;100.00;52543.91;5069555;28;20657;-72
2021/01/08 10:42:33;;;;;;;14.50;10.30;;;;;;;-144.99;100.00;52570.38;5070676;28;20619;-76
2021/01/08 10:44:59;;;;;;;16.03;10.37;;;;;;;-144.99;100.00;52545.94;5068750;28;20663;-73
2021/01/08 10:47:25;;;;;;;15.23;10.13;;;;;;;-144.99;100.00;52558.16;5070009;28;21298;-73
2021/01/08 10:49:53;;;;;;;14.03;9.67;;;;;;;-144.99;100.00;52570.38;5067715;28;20635;-72
2021/01/08 10:52:23;;;;;;;15.63;10.33;;;;;;;-144.99;100.00;52554.09;5070750;28;20623;-76
2021/01/08 10:54:50;;;;;;;14.07;9.47;;;;;;;-144.99;100.00;52537.78;5062746;28;20679;-73
2021/01/08 10:57:16;;;;;;;18.33;11.03;;;;;;;-144.99;100.00;52560.19;5069749;28;20618;-74
2021/01/08 10:59:43;;;;;;;11.93;8.83;;;;;;;-144.99;100.00;52533.69;5068338;28;20725;-75
2021/01/08 11:02:10;;;;;;;15.43;9.13;;;;;;;-144.99;100.00;52558.16;5069784;28;20715;-75
2021/01/08 11:04:36;;;;;;;12.80;10.13;;;;;;;-144.99;100.00;52545.94;5067193;28;20874;-74
2021/01/08 11:07:03;;;;;;;13.90;10.13;;;;;;;-144.99;100.00;52558.16;5062155;28;20676;-77